Time;durP1;ratioP1;P1;durP2;ratioP2;P2;SDS_P1;SDS_P2;PMS_P1;PMS_P2;Temp;Humidity;BMP_temperature;BMP_pressure;BME280_temperature;BME280_humidity;BME280_pressure;Samples;Min_cycle;Max_cycle;Signal;HPM_P1;HPM_P2
2022/02/04 00:24:44;;;;;;;24.00;8.32;;;;;;;4.95;55.48;100177.31;4373787;32;32967;-85
2022/02/04 00:27:18;;;;;;;20.65;10.13;;;;;;;4.87;55.62;100180.91;4360519;32;34096;-85
2022/02/04 00:30:00;;;;;;;15.40;7.68;;;;;;;5.05;55.01;100178.91;4361149;32;33581;-85
2022/02/04 00:32:31;;;;;;;20.80;8.00;;;;;;;5.42;53.38;100173.09;4357494;32;32781;-85
2022/02/04 00:35:13;;;;;;;19.20;7.68;;;;;;;5.11;54.12;100168.34;4354023;32;33402;-85
2022/02/04 00:40:16;;;;;;;19.92;8.68;;;;;;;5.37;52.47;100160.94;4361495;32;33477;-85
2022/02/04 00:42:44;;;;;;;20.45;8.38;;;;;;;4.95;54.26;100166.84;4360648;32;34249;-86
2022/02/04 00:45:21;;;;;;;21.92;9.38;;;;;;;4.98;53.20;100166.78;4361198;32;34758;-85
2022/02/04 00:51:05;;;;;;;19.52;9.90;;;;;;;5.33;51.12;100164.50;4361442;32;33569;-85
2022/02/04 00:53:49;;;;;;;24.17;10.70;;;;;;;4.97;51.48;100165.06;4350063;32;32678;-85
2022/02/04 01:26:22;;;;;;;21.42;8.93;;;;;;;5.09;51.87;100130.88;4372286;32;34448;-85
2022/02/04 01:28:52;;;;;;;16.42;7.97;;;;;;;5.28;51.24;100127.06;4350627;32;34334;-86
2022/02/04 01:31:22;;;;;;;18.80;8.68;;;;;;;5.25;51.11;100121.84;4362834;32;33064;-84
2022/02/04 01:33:52;;;;;;;25.73;8.45;;;;;;;5.20;51.51;100117.59;4362303;32;32558;-84
2022/02/04 01:36:20;;;;;;;16.27;8.50;;;;;;;5.08;51.48;100116.03;4362918;32;33584;-84
2022/02/04 01:38:48;;;;;;;24.45;9.05;;;;;;;5.02;52.16;100110.91;4372982;32;33559;-86
2022/02/04 01:41:16;;;;;;;17.30;8.27;;;;;;;5.14;51.85;100110.72;4361554;32;34065;-86
2022/02/04 01:43:44;;;;;;;22.37;8.70;;;;;;;5.29;51.48;100099.97;4362393;32;32572;-86
2022/02/04 01:46:13;;;;;;;18.20;7.70;;;;;;;5.28;51.84;100093.03;4375347;32;33183;-86
2022/02/04 01:48:42;;;;;;;21.62;8.68;;;;;;;5.00;52.16;100091.75;4363976;32;33927;-85
2022/02/04 01:51:12;;;;;;;14.32;8.18;;;;;;;5.17;51.63;100084.47;4363564;32;33403;-86
2022/02/04 01:53:40;;;;;;;16.08;8.07;;;;;;;5.19;51.51;100087.09;4351962;32;33335;-85
2022/02/04 01:56:10;;;;;;;15.75;7.10;;;;;;;5.55;50.49;100075.06;4352034;32;33661;-84
2022/02/04 01:58:39;;;;;;;17.35;8.35;;;;;;;4.86;52.01;100085.00;4375837;32;33048;-84
2022/02/04 02:01:07;;;;;;;17.23;8.32;;;;;;;5.19;51.58;100072.25;4350515;32;33303;-84
2022/02/04 02:03:35;;;;;;;17.27;7.37;;;;;;;5.55;50.58;100069.81;4364002;32;32510;-84
2022/02/04 02:06:09;;;;;;;18.70;7.35;;;;;;;5.38;50.78;100063.16;4351834;32;32477;-84
2022/02/04 02:08:39;;;;;;;19.33;8.00;;;;;;;5.37;51.12;100055.34;4363538;32;33851;-84
2022/02/04 02:11:09;;;;;;;16.37;7.83;;;;;;;5.14;51.57;100060.97;4364719;32;33401;-84
2022/02/04 02:13:53;;;;;;;16.30;7.28;;;;;;;5.13;52.20;100056.66;4352255;32;33329;-85
2022/02/04 02:44:29;;;;;;;10.52;5.57;;;;;;;5.06;52.70;100029.69;4344626;33;33880;-84
2022/02/04 02:52:22;;;;;;;15.40;5.30;;;;;;;5.25;52.25;100014.53;4362071;32;32609;-86
2022/02/04 03:02:57;;;;;;;12.40;5.65;;;;;;;5.28;52.70;99997.91;4376371;32;34055;-84
2022/02/04 03:05:25;;;;;;;11.12;5.45;;;;;;;5.31;52.69;100009.16;4351362;32;32753;-84
2022/02/04 03:07:52;;;;;;;18.95;6.22;;;;;;;5.45;52.29;100000.19;4361629;32;33273;-84
2022/02/04 03:10:20;;;;;;;16.33;5.93;;;;;;;5.41;52.10;99991.50;4363971;32;33768;-84
2022/02/04 03:12:48;;;;;;;16.52;5.95;;;;;;;5.39;52.49;100004.66;4351073;32;33256;-83
2022/02/04 03:15:16;;;;;;;10.38;5.68;;;;;;;5.17;52.89;100005.94;4363434;32;33213;-83
2022/02/04 03:17:47;;;;;;;14.85;5.80;;;;;;;5.15;52.56;100002.50;4351650;32;33250;-83
2022/02/04 03:20:16;;;;;;;11.82;5.85;;;;;;;5.24;52.59;100007.56;4363855;32;33416;-83
2022/02/04 03:22:46;;;;;;;11.63;5.87;;;;;;;5.47;51.68;100008.91;4351331;32;33886;-83
2022/02/04 03:25:15;;;;;;;13.85;5.35;;;;;;;5.42;52.01;100015.97;4349366;32;32683;-83
2022/02/04 03:27:50;;;;;;;12.68;5.97;;;;;;;5.48;51.74;100005.38;4375648;32;33467;-83
2022/02/04 03:30:25;;;;;;;12.07;5.40;;;;;;;5.53;51.78;100004.38;4362315;32;33526;-83
2022/02/04 03:32:58;;;;;;;11.60;5.32;;;;;;;5.18;52.39;100012.06;4363139;32;33898;-83
2022/02/04 03:35:25;;;;;;;;;;;;;;;5.17;52.91;100010.31;4363254;32;32745;-83
2022/02/04 03:37:55;;;;;;;7.70;5.25;;;;;;;5.29;52.44;100008.34;4363672;32;33619;-83
2022/02/04 03:40:23;;;;;;;15.63;5.62;;;;;;;5.16;52.69;99998.12;4351662;32;32957;-85
2022/02/04 03:42:51;;;;;;;13.80;5.28;;;;;;;4.59;54.42;100001.72;4374582;32;33729;-86
2022/02/04 03:45:21;;;;;;;13.55;4.78;;;;;;;4.93;53.58;100001.16;4363594;32;33228;-85
2022/02/04 03:47:49;;;;;;;13.25;5.12;;;;;;;5.03;53.30;99987.00;4351688;32;33653;-85
2022/02/04 03:50:17;;;;;;;17.15;6.35;;;;;;;4.84;53.76;99989.09;4363355;32;33521;-84
2022/02/04 03:52:45;;;;;;;13.60;5.85;;;;;;;4.79;54.16;99989.16;4363613;32;34287;-85
2022/02/04 03:55:13;;;;;;;10.45;5.00;;;;;;;4.74;54.22;99984.91;4375808;32;34175;-85
2022/02/04 03:57:41;;;;;;;10.93;5.37;;;;;;;4.99;53.57;99985.34;4338957;32;32268;-84
2022/02/04 04:00:12;;;;;;;15.13;5.78;;;;;;;4.98;52.83;99976.63;4363471;32;33791;-85
2022/02/04 04:02:42;;;;;;;12.98;5.65;;;;;;;5.30;52.32;99980.41;4361474;32;32917;-84
2022/02/04 04:05:11;;;;;;;15.18;6.53;;;;;;;5.40;51.55;99984.56;4362623;32;32686;-84
2022/02/04 04:07:48;;;;;;;9.98;5.28;;;;;;;5.39;51.98;99982.84;4351534;32;34160;-84
2022/02/04 04:10:25;;;;;;;8.30;5.18;;;;;;;5.22;51.72;99977.06;4362040;32;32957;-84
2022/02/04 04:12:57;;;;;;;18.75;5.57;;;;;;;4.88;52.47;99983.78;4362654;32;34016;-85
2022/02/04 04:15:26;;;;;;;14.85;5.07;;;;;;;4.92;52.57;99970.66;4375557;32;33167;-85
2022/02/04 04:17:53;;;;;;;9.73;4.97;;;;;;;5.13;51.92;99980.75;4361920;32;33424;-85
2022/02/04 04:20:23;;;;;;;14.75;5.50;;;;;;;5.20;51.53;99961.38;4351256;32;34243;-84
2022/02/04 04:22:52;;;;;;;10.88;5.03;;;;;;;5.24;51.52;99972.66;4375504;32;34565;-84
2022/02/04 04:25:20;;;;;;;13.07;4.60;;;;;;;5.18;51.87;99970.19;4350707;32;33962;-84
2022/02/04 04:27:48;;;;;;;8.38;4.62;;;;;;;5.19;51.46;99972.75;4348906;32;32466;-84
2022/02/04 04:30:17;;;;;;;15.32;5.20;;;;;;;5.26;51.24;99973.50;4362972;32;33479;-84
2022/02/04 04:32:46;;;;;;;11.73;4.72;;;;;;;5.08;51.83;99972.06;4375463;32;34245;-84
2022/02/04 04:35:15;;;;;;;10.57;4.97;;;;;;;5.01;51.99;99981.81;4351204;32;33129;-84
2022/02/04 04:38:08;;;;;;;12.82;4.70;;;;;;;5.14;51.72;99982.47;4363400;32;32188;-84
2022/02/04 04:41:01;;;;;;;8.05;4.55;;;;;;;5.09;51.95;99977.31;4364201;32;33612;-85
2022/02/04 05:30:24;;;;;;;14.57;4.95;;;;;;;4.75;52.84;99963.13;4362791;32;33435;-86
2022/02/04 05:32:52;;;;;;;13.15;4.78;;;;;;;5.00;52.52;99958.28;4350729;32;33543;-86
2022/02/04 05:35:20;;;;;;;11.60;4.57;;;;;;;5.19;51.86;99956.19;4359986;32;34299;-86
2022/02/04 05:37:50;;;;;;;15.70;4.45;;;;;;;5.21;51.75;99963.09;4358061;32;32422;-86
2022/02/04 05:40:21;;;;;;;9.52;3.97;;;;;;;5.20;51.63;99958.78;4374675;32;34042;-86
2022/02/04 05:42:56;;;;;;;11.15;3.80;;;;;;;5.31;51.31;99961.16;4350490;32;33229;-85
2022/02/04 05:45:27;;;;;;;9.23;4.72;;;;;;;4.99;52.16;99959.19;4360899;32;34089;-84
2022/02/04 05:47:59;;;;;;;13.05;4.97;;;;;;;5.12;52.01;99960.66;4362389;32;32712;-85
2022/02/04 05:51:37;;;;;;;;;;;;;;;5.38;51.29;99965.41;4374953;32;33198;-85
2022/02/04 05:53:30;;;;;;;9.63;4.00;;;;;;;5.51;50.80;99955.56;4345033;32;32581;-84
2022/02/04 05:56:09;;;;;;;13.95;4.50;;;;;;;5.47;50.79;99954.75;4348924;32;34682;-83
2022/02/04 06:07:10;;;;;;;9.32;3.97;;;;;;;5.09;51.62;99973.84;4364348;32;33432;-84
2022/02/04 06:23:19;;;;;;;8.70;4.35;;;;;;;4.81;52.98;100007.47;4361967;32;33226;-85
2022/02/04 06:25:47;;;;;;;11.60;4.43;;;;;;;5.12;52.22;99990.31;4357622;32;34203;-85
2022/02/04 06:28:18;;;;;;;9.38;4.28;;;;;;;5.22;51.93;99983.19;4348003;32;33613;-85
2022/02/04 06:30:46;;;;;;;10.85;4.37;;;;;;;5.17;52.20;99990.22;4361894;32;33076;-85
2022/02/04 06:33:14;;;;;;;10.15;4.90;;;;;;;5.30;51.84;99991.72;4361768;32;33463;-85
2022/02/04 06:35:42;;;;;;;10.02;4.15;;;;;;;5.12;52.18;99986.84;4369462;32;33043;-88
2022/02/04 06:38:10;;;;;;;8.95;4.93;;;;;;;5.14;52.02;99999.03;4363851;32;33767;-88
2022/02/04 06:40:38;;;;;;;8.73;4.45;;;;;;;4.98;52.58;99994.06;4351921;32;33007;-88
2022/02/04 06:43:05;;;;;;;10.30;4.18;;;;;;;5.18;52.56;99996.34;4360071;32;34017;-87
2022/02/04 06:45:33;;;;;;;11.27;4.47;;;;;;;5.25;52.26;99998.81;4358312;32;32888;-88
2022/02/04 06:48:01;;;;;;;6.78;4.07;;;;;;;5.65;51.01;99992.81;4361312;32;32837;-88
2022/02/04 06:50:29;;;;;;;12.65;4.80;;;;;;;5.42;51.18;100000.25;4363234;32;33927;-88
2022/02/04 06:52:56;;;;;;;11.52;5.50;;;;;;;5.19;51.99;100000.69;4362627;32;33647;-88
2022/02/04 06:55:24;;;;;;;9.85;4.50;;;;;;;5.00;52.44;100002.78;4362552;32;32844;-88
2022/02/04 06:57:54;;;;;;;14.48;5.00;;;;;;;5.18;52.09;99996.34;4351257;32;32711;-88
2022/02/04 07:00:25;;;;;;;10.93;5.25;;;;;;;4.72;53.11;99998.03;4361271;32;33572;-88
2022/02/04 07:02:54;;;;;;;9.50;5.00;;;;;;;5.11;52.51;99995.59;4375592;32;32741;-88
2022/02/04 07:05:23;;;;;;;15.80;6.45;;;;;;;5.37;51.41;100000.34;4363928;32;32894;-88
2022/02/04 07:08:02;;;;;;;12.93;6.07;;;;;;;5.43;51.21;99999.38;4363918;32;33001;-88
2022/02/04 07:10:53;;;;;;;15.00;5.07;;;;;;;5.17;51.94;100011.16;4352710;32;33091;-88
2022/02/04 07:13:28;;;;;;;11.75;5.28;;;;;;;5.27;51.85;100012.75;4352549;32;32681;-88
2022/02/04 07:16:19;;;;;;;11.48;4.35;;;;;;;5.38;51.70;100015.16;4363696;32;32803;-88
2022/02/04 07:21:30;;;;;;;10.77;4.55;;;;;;;5.43;51.64;100018.56;4372314;32;34265;-87
2022/02/04 07:23:58;;;;;;;12.27;4.90;;;;;;;5.29;51.97;100018.81;4363189;32;33372;-87
2022/02/04 07:26:26;;;;;;;17.08;5.80;;;;;;;5.08;52.70;100014.84;4361712;32;33617;-87
2022/02/04 07:28:54;;;;;;;16.17;4.80;;;;;;;5.41;51.89;100009.84;4357113;32;32444;-88
2022/02/04 07:31:23;;;;;;;14.63;5.45;;;;;;;5.25;52.06;100008.44;4348209;32;33151;-88
2022/02/04 07:34:03;;;;;;;13.05;5.37;;;;;;;5.64;51.19;100002.41;4351003;32;32805;-87
2022/02/04 07:41:52;;;;;;;15.32;4.65;;;;;;;4.82;53.65;100019.66;4362284;32;34393;-88
2022/02/04 07:44:19;;;;;;;8.27;4.47;;;;;;;5.03;52.45;100013.19;4349834;32;34345;-88
2022/02/04 07:46:47;;;;;;;21.37;5.18;;;;;;;5.44;51.53;100007.19;4361760;32;34576;-88
2022/02/04 07:49:15;;;;;;;8.70;4.60;;;;;;;5.80;51.03;99997.72;4350089;32;33697;-87
2022/02/04 07:51:43;;;;;;;9.98;4.40;;;;;;;5.69;50.50;100004.06;4363415;32;33283;-87
2022/02/04 07:54:12;;;;;;;13.30;4.07;;;;;;;5.40;52.02;100001.12;4349423;32;34940;-87
2022/02/04 07:56:40;;;;;;;12.40;4.45;;;;;;;5.52;51.36;99996.56;4349032;32;33066;-87
2022/02/04 07:59:09;;;;;;;13.30;4.65;;;;;;;5.80;50.44;99991.63;4363203;32;33164;-88
2022/02/04 08:01:37;;;;;;;13.90;4.80;;;;;;;5.71;50.02;99987.44;4351281;32;35336;-88
2022/02/04 08:06:44;;;;;;;11.70;4.90;;;;;;;6.03;50.03;99988.50;4357563;32;33304;-87
2022/02/04 08:09:24;;;;;;;11.85;4.47;;;;;;;5.79;49.75;99993.37;4350681;32;32587;-87
2022/02/04 08:25:26;;;;;;;15.82;4.68;;;;;;;6.11;49.73;99983.97;4370062;32;33804;-87
2022/02/04 08:28:19;;;;;;;11.68;3.95;;;;;;;6.08;50.17;99992.78;4358576;32;33342;-87
2022/02/04 08:36:46;;;;;;;10.38;4.22;;;;;;;6.35;48.70;99980.78;4363868;32;34172;-87
2022/02/04 08:55:28;;;;;;;13.52;5.65;;;;;;;6.99;47.00;99970.47;4375497;32;32895;-88
2022/02/04 08:58:15;;;;;;;16.40;5.37;;;;;;;6.96;47.71;99967.03;4362015;32;33510;-87
2022/02/04 09:00:55;;;;;;;10.00;4.65;;;;;;;7.00;46.70;99973.94;4362795;32;32598;-88
2022/02/04 09:03:29;;;;;;;8.98;4.30;;;;;;;6.96;47.50;99974.91;4361944;32;33103;-88
2022/02/04 09:06:17;;;;;;;13.27;4.05;;;;;;;6.85;47.09;99975.22;4342658;32;32234;-88
2022/02/04 09:08:50;;;;;;;12.48;4.40;;;;;;;7.12;47.03;99981.47;4349909;32;33233;-88
2022/02/04 09:11:37;;;;;;;12.65;4.75;;;;;;;7.32;46.73;99987.06;4361633;32;32446;-88
2022/02/04 09:19:29;;;;;;;11.48;4.43;;;;;;;7.81;44.81;99980.41;4362353;32;33522;-87
2022/02/04 09:24:25;;;;;;;8.45;3.87;;;;;;;8.68;43.60;99955.78;4375041;32;34783;-88
2022/02/04 09:26:53;;;;;;;9.15;4.57;;;;;;;8.58;43.13;99962.28;4362501;32;33384;-87
2022/02/04 09:29:21;;;;;;;13.13;4.10;;;;;;;8.39;43.38;99968.13;4350662;32;32770;-88
2022/02/04 09:31:49;;;;;;;9.38;3.97;;;;;;;8.70;43.19;99959.25;4362372;32;34297;-88
2022/02/04 09:34:17;;;;;;;14.68;5.30;;;;;;;8.83;42.80;99968.47;4375349;32;33647;-88
2022/02/04 09:36:44;;;;;;;8.65;3.67;;;;;;;9.42;41.88;99962.84;4362702;32;33836;-87
2022/02/04 09:39:12;;;;;;;9.60;4.03;;;;;;;9.46;42.39;99953.91;4358611;32;33187;-87
2022/02/04 09:41:42;;;;;;;8.98;3.95;;;;;;;9.38;42.45;99955.97;4363243;32;33536;-88
2022/02/04 09:44:09;;;;;;;9.90;4.68;;;;;;;8.83;41.27;99967.56;4349380;32;33512;-88
2022/02/04 09:46:39;;;;;;;9.75;5.22;;;;;;;8.91;42.29;99961.13;4349671;32;33304;-88
2022/02/04 09:49:17;;;;;;;10.20;4.22;;;;;;;9.55;41.84;99952.72;4361149;32;33478;-88
2022/02/04 10:08:24;;;;;;;6.55;3.67;;;;;;;10.22;39.65;99928.16;4373410;32;33254;-88
2022/02/04 10:17:08;;;;;;;10.15;3.83;;;;;;;9.83;40.07;99952.53;4355476;32;32397;-88
2022/02/04 10:19:57;;;;;;;11.38;4.20;;;;;;;9.70;40.64;99946.00;4367131;32;34417;-88
2022/02/04 10:22:28;;;;;;;7.12;3.40;;;;;;;9.69;40.50;99944.31;4369472;32;34259;-88
2022/02/04 10:25:01;;;;;;;10.25;4.05;;;;;;;9.52;41.66;99933.53;4345935;32;33111;-88
2022/02/04 10:27:31;;;;;;;7.53;3.85;;;;;;;9.45;41.30;99946.94;4365797;32;31154;-88
2022/02/04 10:30:03;;;;;;;11.05;4.62;;;;;;;9.96;40.78;99943.22;4366532;32;32459;-88
2022/02/04 10:32:30;;;;;;;7.45;3.67;;;;;;;10.04;40.66;99936.81;4368361;32;33302;-87
2022/02/04 10:35:16;;;;;;;6.47;4.18;;;;;;;9.93;40.09;99938.09;4354123;32;33602;-88
2022/02/04 10:40:52;;;;;;;10.80;4.22;;;;;;;9.77;41.09;99936.09;4368239;32;34409;-88
2022/02/04 10:43:41;;;;;;;8.90;4.57;;;;;;;10.07;40.14;99928.78;4355599;32;34013;-88
2022/02/04 10:49:08;;;;;;;10.73;4.28;;;;;;;10.11;40.10;99917.16;4366249;32;32952;-88
2022/02/04 10:54:34;;;;;;;8.23;3.53;;;;;;;10.35;39.68;99926.78;4357623;32;32809;-88
2022/02/04 11:00:02;;;;;;;14.80;5.25;;;;;;;10.10;40.18;99912.81;4354021;32;31977;-88
2022/02/04 11:04:52;;;;;;;7.55;3.72;;;;;;;10.17;40.86;99909.87;4355609;32;33103;-88
2022/02/04 11:07:46;;;;;;;10.27;3.80;;;;;;;10.30;39.47;99899.69;4357958;32;33495;-88
2022/02/04 11:35:59;;;;;;;7.32;2.85;;;;;;;12.84;35.84;99850.88;4366495;32;33569;-88
2022/02/04 11:52:49;;;;;;;6.55;3.40;;;;;;;12.68;34.93;99834.06;4349174;32;33848;-88
2022/02/04 11:55:17;;;;;;;8.07;3.55;;;;;;;13.02;33.85;99827.84;4355779;32;35403;-89
2022/02/04 11:57:59;;;;;;;6.53;3.28;;;;;;;12.05;35.56;99822.19;4364471;32;32308;-89
2022/02/04 12:00:28;;;;;;;;;;;;;;;11.75;36.36;99799.84;4329199;32;33101;-89
2022/02/04 12:02:56;;;;;;;6.57;3.75;;;;;;;11.92;36.28;99807.88;4336758;32;32221;-89
2022/02/04 12:05:24;;;;;;;7.07;3.60;;;;;;;11.51;37.55;99833.63;4353203;32;34304;-89
2022/02/04 12:07:56;;;;;;;7.65;3.97;;;;;;;11.45;37.67;99845.34;4358680;32;33716;-88
2022/02/04 12:10:28;;;;;;;;;;;;;;;11.26;38.04;99834.78;4350134;32;33300;-86
2022/02/04 12:12:57;;;;;;;7.75;4.35;;;;;;;11.77;37.53;99827.09;4359518;32;33151;-87
2022/02/04 12:16:07;;;;;;;7.55;4.37;;;;;;;11.60;38.98;99821.75;4354191;32;32788;-87
2022/02/04 12:18:40;;;;;;;9.63;4.40;;;;;;;12.15;37.12;99824.38;4364151;32;32975;-88
2022/02/04 12:21:11;;;;;;;8.88;3.53;;;;;;;12.42;36.05;99822.16;4367121;32;32291;-87
2022/02/04 12:23:45;;;;;;;10.13;3.95;;;;;;;12.42;35.56;99809.75;4344629;32;32748;-87
2022/02/04 12:26:19;;;;;;;12.40;4.18;;;;;;;12.37;35.72;99809.13;4361977;32;33395;-87
2022/02/04 12:28:49;;;;;;;5.85;3.53;;;;;;;11.82;37.30;99819.84;4357675;32;34774;-85
2022/02/04 12:31:27;;;;;;;8.93;3.78;;;;;;;11.78;37.85;99816.44;4355161;32;32365;-85
2022/02/04 12:33:58;;;;;;;11.70;3.55;;;;;;;11.70;37.48;99818.59;4369559;32;33269;-85
2022/02/04 12:36:29;;;;;;;7.25;3.78;;;;;;;11.54;38.03;99807.91;4357717;32;33190;-86
2022/02/04 12:39:03;;;;;;;10.93;4.45;;;;;;;12.02;37.40;99802.97;4354856;32;33763;-86
2022/02/04 12:41:38;;;;;;;6.97;3.25;;;;;;;12.17;38.25;99801.34;4355893;32;32640;-85
2022/02/04 12:44:09;;;;;;;9.90;3.80;;;;;;;12.14;37.62;99802.34;4350592;32;33937;-86
2022/02/04 12:46:40;;;;;;;10.50;4.05;;;;;;;12.29;37.18;99796.28;4353121;32;33199;-85
2022/02/04 12:49:10;;;;;;;9.15;4.57;;;;;;;12.42;37.28;99785.94;4364846;32;33379;-85
2022/02/04 12:52:26;;;;;;;7.43;3.80;;;;;;;12.56;36.68;99787.87;4365747;32;33963;-86
2022/02/04 12:54:42;;;;;;;9.02;4.22;;;;;;;12.48;36.83;99785.59;4338545;32;33443;-85
2022/02/04 13:03:10;;;;;;;6.75;3.70;;;;;;;11.82;37.99;99771.31;4366495;32;33226;-88
2022/02/04 13:08:42;;;;;;;8.07;3.65;;;;;;;12.35;36.53;99773.94;4359061;32;34358;-85
2022/02/04 13:11:15;;;;;;;10.13;4.50;;;;;;;12.45;36.13;99779.63;4345310;32;33287;-85
2022/02/04 13:13:48;;;;;;;7.45;4.35;;;;;;;12.62;36.54;99765.50;4354434;32;33307;-89
2022/02/04 13:16:24;;;;;;;8.35;3.75;;;;;;;12.23;37.45;99778.06;4358006;32;32880;-87
2022/02/04 13:18:53;;;;;;;11.73;4.70;;;;;;;12.27;37.69;99770.84;4348909;32;34304;-83
2022/02/04 13:21:21;;;;;;;11.15;4.35;;;;;;;11.88;37.56;99782.50;4364231;32;33746;-84
2022/02/04 13:23:52;;;;;;;8.30;4.05;;;;;;;12.29;37.14;99776.91;4348568;32;32931;-85
2022/02/04 13:26:24;;;;;;;8.00;4.20;;;;;;;12.61;36.07;99763.78;4347860;32;33461;-85
2022/02/04 13:28:56;;;;;;;9.80;4.22;;;;;;;12.74;36.35;99775.47;4350625;32;33832;-86
2022/02/04 13:31:25;;;;;;;8.52;3.55;;;;;;;12.24;37.22;99774.47;4349821;32;34738;-85
2022/02/04 13:33:56;;;;;;;7.12;3.83;;;;;;;11.69;37.90;99773.72;4364029;32;32859;-85
2022/02/04 13:36:35;;;;;;;9.05;3.92;;;;;;;12.40;36.75;99776.38;4345909;32;33704;-86
2022/02/04 13:42:12;;;;;;;7.37;3.67;;;;;;;12.51;37.20;99752.81;4348383;32;32755;-86
2022/02/04 13:44:55;;;;;;;10.63;4.53;;;;;;;12.51;37.31;99753.69;4338362;32;34676;-85
2022/02/04 13:53:03;;;;;;;8.57;4.05;;;;;;;12.98;35.47;99750.28;4365229;32;35383;-86
2022/02/04 13:58:35;;;;;;;10.07;5.45;;;;;;;12.79;36.16;99755.72;4341952;32;33063;-86
2022/02/04 14:03:50;;;;;;;7.80;4.05;;;;;;;12.34;37.58;99744.88;4367919;32;32977;-86
2022/02/04 14:06:24;;;;;;;8.20;4.10;;;;;;;12.43;37.79;99739.97;4355419;32;33997;-86
2022/02/04 14:09:00;;;;;;;7.05;3.75;;;;;;;12.71;37.64;99747.31;4342587;32;33424;-86
2022/02/04 14:11:39;;;;;;;7.65;4.10;;;;;;;12.94;37.25;99754.03;4365291;32;35059;-86
2022/02/04 14:14:09;;;;;;;7.93;3.87;;;;;;;12.95;37.07;99747.78;4350572;32;33880;-86
2022/02/04 14:16:39;;;;;;;6.82;4.00;;;;;;;12.88;37.65;99745.56;4356162;32;32949;-86
2022/02/04 14:19:07;;;;;;;8.77;3.90;;;;;;;13.19;36.26;99744.75;4341434;32;33713;-86
2022/02/04 14:21:35;;;;;;;9.35;4.43;;;;;;;12.89;37.01;99748.13;4364135;32;32577;-86
2022/02/04 14:24:11;;;;;;;5.28;3.92;;;;;;;13.04;36.97;99744.63;4363416;32;33612;-86
2022/02/04 14:26:45;;;;;;;7.37;4.12;;;;;;;12.85;37.45;99738.62;4352424;32;33933;-86
2022/02/04 14:29:39;;;;;;;8.00;3.62;;;;;;;12.74;38.36;99748.97;4366539;32;34184;-86
2022/02/04 14:32:10;;;;;;;11.65;5.03;;;;;;;12.96;37.33;99746.88;4355033;32;31344;-86
2022/02/04 14:37:43;;;;;;;6.43;4.30;;;;;;;12.75;37.11;99748.87;4363895;32;33683;-87
2022/02/04 14:54:47;;;;;;;7.53;3.45;;;;;;;12.13;39.02;99749.50;4354958;32;33657;-84
2022/02/04 15:02:24;;;;;;;7.12;4.50;;;;;;;12.22;39.95;99751.69;4345297;32;31622;-85
2022/02/04 15:04:54;;;;;;;11.10;4.00;;;;;;;12.37;39.12;99748.25;4345697;32;33924;-86
2022/02/04 15:07:30;;;;;;;6.05;3.35;;;;;;;12.30;39.11;99754.81;4352542;32;33689;-86
2022/02/04 15:10:01;;;;;;;8.75;3.78;;;;;;;12.19;39.41;99752.69;4355328;32;33859;-86
2022/02/04 15:12:28;;;;;;;11.32;4.75;;;;;;;12.16;39.60;99755.50;4350706;32;32882;-85
2022/02/04 15:14:56;;;;;;;8.65;4.03;;;;;;;12.15;39.74;99750.28;4354461;32;33234;-85
2022/02/04 15:17:24;;;;;;;8.43;4.28;;;;;;;12.14;40.11;99748.56;4364723;32;33687;-86
2022/02/04 15:19:51;;;;;;;9.70;4.75;;;;;;;11.59;41.97;99752.16;4351815;32;33982;-85
2022/02/04 15:22:23;;;;;;;12.85;4.47;;;;;;;11.50;42.45;99745.50;4362732;32;32107;-86
2022/02/04 15:24:56;;;;;;;9.48;4.78;;;;;;;11.34;42.81;99744.50;4350660;32;32873;-86
2022/02/04 15:27:24;;;;;;;;;;;;;;;11.37;42.74;99747.03;4353593;32;34107;-86
2022/02/04 15:29:52;;;;;;;6.30;4.80;;;;;;;11.30;42.99;99758.84;4337448;32;33393;-85
2022/02/04 15:32:22;;;;;;;8.02;5.03;;;;;;;11.02;43.63;99761.91;4362256;32;34015;-86
2022/02/04 15:34:51;;;;;;;13.48;6.45;;;;;;;10.66;44.75;99767.06;4351437;32;33829;-86
2022/02/04 15:37:19;;;;;;;14.85;6.15;;;;;;;10.89;44.06;99764.25;4352641;32;35859;-85
2022/02/04 15:39:47;;;;;;;20.10;7.87;;;;;;;10.93;43.98;99763.19;4349289;32;34788;-85
2022/02/04 15:42:17;;;;;;;18.52;9.63;;;;;;;10.81;44.43;99770.78;4362487;32;33151;-85
2022/02/04 15:45:01;;;;;;;21.15;10.88;;;;;;;10.83;44.27;99775.09;4357704;32;33767;-86
2022/02/04 15:47:38;;;;;;;20.90;11.02;;;;;;;10.66;44.86;99769.69;4356831;32;32674;-85
2022/02/04 15:50:31;;;;;;;22.30;10.73;;;;;;;10.59;45.04;99770.91;4352576;32;34009;-85
2022/02/04 16:06:04;;;;;;;16.50;6.85;;;;;;;10.67;45.00;99776.69;4338602;32;32901;-85
2022/02/04 16:08:32;;;;;;;18.02;7.85;;;;;;;10.74;44.64;99776.34;4364054;32;34741;-85
2022/02/04 16:13:54;;;;;;;29.42;12.02;;;;;;;10.57;44.84;99775.38;4362657;32;33312;-85
2022/02/04 16:16:27;;;;;;;28.33;12.37;;;;;;;10.35;45.36;99776.34;4336711;32;34021;-85
2022/02/04 16:19:04;;;;;;;26.17;11.00;;;;;;;9.84;46.90;99780.19;4337209;32;33180;-84
2022/02/04 16:21:49;;;;;;;23.62;10.82;;;;;;;9.78;47.14;99775.19;4339722;32;33943;-85
2022/02/04 16:29:52;;;;;;;35.55;15.00;;;;;;;10.03;46.36;99771.53;4353139;32;34684;-85
2022/02/04 16:32:20;;;;;;;33.00;15.65;;;;;;;10.03;46.41;99779.44;4353361;32;34039;-84
2022/02/04 16:34:54;;;;;;;70.65;26.75;;;;;;;10.01;46.45;99767.16;4352956;32;33635;-84
2022/02/04 16:37:30;;;;;;;59.95;26.05;;;;;;;9.91;46.89;99773.75;4350089;32;34330;-84
2022/02/04 16:40:02;;;;;;;60.88;26.83;;;;;;;9.75;47.22;99770.88;4353394;32;34759;-85
2022/02/04 16:42:31;;;;;;;76.60;28.85;;;;;;;9.85;46.96;99768.72;4351909;32;34370;-84
2022/02/04 16:44:59;;;;;;;70.75;27.02;;;;;;;9.67;47.57;99777.38;4363843;32;34345;-84
2022/02/04 16:47:26;;;;;;;47.28;20.92;;;;;;;9.23;48.88;99778.22;4340008;32;33374;-84
2022/02/04 16:49:54;;;;;;;45.42;19.33;;;;;;;9.27;48.73;99780.75;4338431;32;33132;-85
2022/02/04 16:52:22;;;;;;;45.80;17.75;;;;;;;9.34;48.52;99771.66;4341984;32;34520;-84
2022/02/04 16:54:49;;;;;;;54.17;21.33;;;;;;;9.51;48.01;99778.94;4352135;32;34345;-85
2022/02/04 16:57:17;;;;;;;42.15;18.83;;;;;;;9.47;48.09;99779.03;4353229;32;33800;-84
2022/02/04 16:59:46;;;;;;;42.25;18.65;;;;;;;9.40;48.22;99774.94;4353263;32;32803;-85
2022/02/04 17:02:14;;;;;;;45.12;17.50;;;;;;;9.35;48.34;99768.09;4353154;32;33670;-84
2022/02/04 17:04:45;;;;;;;37.13;18.35;;;;;;;9.42;48.16;99759.91;4365153;32;34529;-84
2022/02/04 17:07:20;;;;;;;40.95;16.05;;;;;;;9.26;48.50;99763.19;4354236;32;33421;-84
2022/02/04 17:09:50;;;;;;;33.47;15.00;;;;;;;9.30;48.38;99767.44;4335968;32;33286;-84
2022/02/04 17:12:27;;;;;;;27.98;14.27;;;;;;;9.22;48.42;99765.13;4354455;32;33784;-85
2022/02/04 17:14:56;;;;;;;25.83;12.73;;;;;;;9.17;48.57;99772.34;4338054;32;33171;-85
2022/02/04 17:17:24;;;;;;;27.77;13.27;;;;;;;9.17;48.46;99770.56;4348898;32;32851;-84
2022/02/04 17:20:09;;;;;;;23.12;11.85;;;;;;;9.06;48.63;99775.34;4339992;32;33386;-85
2022/02/04 17:22:38;;;;;;;30.02;12.05;;;;;;;9.06;48.63;99778.00;4341162;32;34023;-84
2022/02/04 17:25:09;;;;;;;29.52;13.07;;;;;;;8.96;48.86;99776.62;4359351;32;92429;-84
2022/02/04 17:27:43;;;;;;;27.62;11.48;;;;;;;8.91;48.83;99787.34;4350544;32;32576;-84
2022/02/04 17:30:14;;;;;;;24.40;11.43;;;;;;;8.67;49.27;99783.81;4335966;32;32795;-84
2022/02/04 17:32:44;;;;;;;31.05;12.85;;;;;;;8.67;49.23;99777.69;4349732;32;34661;-84
2022/02/04 17:35:13;;;;;;;31.33;12.60;;;;;;;8.72;49.06;99781.03;4365792;32;32419;-84
2022/02/04 17:37:41;;;;;;;22.83;11.50;;;;;;;8.65;49.22;99785.66;4350171;32;34362;-84
2022/02/04 17:40:13;;;;;;;28.17;11.00;;;;;;;8.50;49.58;99798.50;4353874;32;32517;-84
2022/02/04 17:42:42;;;;;;;27.65;12.95;;;;;;;8.50;49.49;99785.34;4352043;32;32573;-84
2022/02/04 17:45:16;;;;;;;33.40;12.45;;;;;;;8.40;49.62;99785.69;4352568;32;34177;-84
2022/02/04 17:47:52;;;;;;;33.35;13.25;;;;;;;8.37;49.69;99790.19;4351623;32;34116;-85
2022/02/04 17:50:28;;;;;;;30.15;14.02;;;;;;;8.35;49.48;99782.28;4350366;32;34349;-84
2022/02/04 17:53:06;;;;;;;40.25;13.90;;;;;;;8.21;49.86;99785.44;4351411;32;33804;-84
2022/02/04 17:55:45;;;;;;;32.30;14.85;;;;;;;8.21;49.68;99782.81;4334314;32;32861;-84
2022/02/04 18:06:42;;;;;;;30.05;13.82;;;;;;;7.81;50.42;99790.28;4354688;32;34948;-82
2022/02/04 18:09:10;;;;;;;33.20;14.43;;;;;;;7.87;50.19;99790.06;4353068;32;34744;-82
2022/02/04 18:11:38;;;;;;;39.17;16.35;;;;;;;7.73;50.56;99795.78;4355585;32;32074;-83